createdAt,value
2023-11-25T00:57:11.429Z,0.80
2023-11-25T06:58:35.479Z,0.30
2023-11-25T07:02:22.469Z,0.20
2023-11-25T07:04:52.605Z,0.27
2023-11-25T07:07:26.538Z,0.67
2023-11-25T07:33:20.775Z,0.20
2023-11-25T07:35:52.414Z,0.10
2023-11-25T07:38:23.226Z,0.73
2023-11-25T07:40:57.283Z,0.20
2023-11-25T07:52:55.555Z,0.40
2023-11-25T07:55:25.637Z,0.60
2023-11-25T07:57:53.442Z,0.33
2023-11-25T08:03:35.955Z,0.50
2023-11-25T08:06:06.905Z,0.10
2023-11-25T08:08:35.439Z,0.10
2023-11-25T08:11:39.190Z,0.63
2023-11-25T08:17:06.258Z,0.30
2023-11-25T08:25:33.916Z,0.20
2023-11-25T09:30:49.120Z,0.20
2023-11-25T09:40:23.980Z,0.43
2023-11-25T10:25:21.240Z,0.90
2023-11-25T10:27:48.504Z,0.13
2023-11-25T10:30:15.843Z,0.28
2023-11-25T10:32:43.130Z,0.30
2023-11-25T10:35:10.548Z,0.20
2023-11-25T10:37:41.109Z,0.30
2023-11-25T10:40:12.288Z,0.40
2023-11-25T10:42:46.160Z,0.20
2023-11-25T10:45:17.215Z,0.52
2023-11-25T10:47:44.684Z,0.38
2023-11-25T10:50:12.412Z,0.28
2023-11-25T10:52:41.178Z,0.25
2023-11-25T10:55:09.957Z,0.10
2023-11-25T10:57:39.746Z,0.73
2023-11-25T11:00:13.934Z,0.10
2023-11-25T11:02:52.439Z,0.40
2023-11-25T11:05:23.819Z,0.63
2023-11-25T11:07:55.895Z,0.30
2023-11-25T11:10:28.823Z,0.10
2023-11-25T11:13:04.991Z,0.45
2023-11-25T11:15:32.789Z,0.30
2023-11-25T11:18:14.500Z,0.20
2023-11-25T11:20:48.596Z,0.30
2023-11-25T11:23:16.943Z,0.20
2023-11-25T11:25:47.033Z,0.85
2023-11-25T11:28:45.142Z,0.20
2023-11-25T11:31:42.197Z,0.25
2023-11-25T11:36:36.324Z,0.35
2023-11-25T11:39:03.448Z,0.10
2023-11-25T11:41:31.233Z,0.40
2023-11-25T11:44:05.776Z,0.20
2023-11-25T11:46:40.521Z,0.25
2023-11-25T11:49:12.975Z,0.32
2023-11-25T11:52:01.290Z,0.25
2023-11-25T11:54:29.560Z,0.13
2023-11-25T11:57:06.568Z,0.10
2023-11-25T12:00:12.769Z,0.20
2023-11-25T12:02:44.241Z,0.10
2023-11-25T12:05:12.324Z,0.20
2023-11-25T12:07:40.133Z,0.32
2023-11-25T12:10:07.845Z,0.20
2023-11-25T12:12:41.866Z,0.03
2023-11-25T12:15:10.605Z,0.10
2023-11-25T12:17:39.699Z,0.10
2023-11-25T12:20:10.094Z,0.13
2023-11-25T12:22:37.354Z,0.00
2023-11-25T12:25:04.784Z,0.10
2023-11-25T12:27:31.829Z,0.10
2023-11-25T12:29:58.873Z,0.00
2023-11-25T12:32:26.100Z,0.05
2023-11-25T12:34:53.866Z,0.10
2023-11-25T12:37:21.973Z,0.30
2023-11-25T12:39:50.131Z,0.03
2023-11-25T12:42:23.728Z,0.10
2023-11-25T12:44:51.334Z,0.10
2023-11-25T12:47:18.610Z,0.03
2023-11-25T12:49:46.424Z,0.10
2023-11-25T12:52:24.662Z,0.10
2023-11-25T12:54:53.915Z,0.00
2023-11-25T12:57:26.668Z,0.20
2023-11-25T12:59:53.680Z,0.20
2023-11-25T13:02:21.204Z,0.28
2023-11-25T13:04:51.103Z,0.20
2023-11-25T13:07:34.062Z,0.10
2023-11-25T13:10:01.504Z,0.00
2023-11-25T13:12:32.996Z,0.10
2023-11-25T13:15:00.542Z,0.20
2023-11-25T13:17:29.265Z,0.10
2023-11-25T13:19:58.516Z,0.10
2023-11-25T13:22:25.837Z,0.15
2023-11-25T13:24:52.925Z,0.10
2023-11-25T13:27:19.994Z,0.10
2023-11-25T13:29:47.004Z,0.10
2023-11-25T13:32:17.463Z,0.10
2023-11-25T13:34:46.386Z,0.10
2023-11-25T13:37:15.893Z,0.10
2023-11-25T13:39:42.961Z,0.20
2023-11-25T13:42:10.190Z,0.10
2023-11-25T13:44:37.683Z,0.00
2023-11-25T13:47:04.851Z,0.10
2023-11-25T17:43:17.566Z,2.33
2023-11-25T17:46:05.731Z,1.77
2023-11-25T17:48:33.871Z,1.17
2023-11-25T17:51:04.407Z,1.23
2023-11-25T17:53:40.339Z,0.80
2023-11-25T17:56:13.743Z,0.93
2023-11-25T17:58:49.731Z,0.93
2023-11-25T18:01:45.778Z,0.90
2023-11-25T18:04:17.900Z,1.20
2023-11-25T18:06:47.039Z,0.53
2023-11-25T18:09:18.155Z,0.77
2023-11-25T18:11:46.012Z,1.00
2023-11-25T18:14:17.217Z,0.90
2023-11-25T18:16:48.096Z,1.00
2023-11-25T18:22:10.966Z,1.50
2023-11-25T18:24:39.086Z,0.90
2023-11-25T18:27:18.141Z,0.90
2023-11-25T18:29:49.175Z,1.33
2023-11-25T18:35:34.623Z,0.70
2023-11-25T18:41:35.665Z,0.80
2023-11-25T18:44:05.879Z,1.20
2023-11-25T18:46:34.677Z,0.87
2023-11-25T18:49:16.017Z,0.70
2023-11-25T18:51:49.104Z,0.83
2023-11-25T18:54:17.294Z,1.30
2023-11-25T18:56:45.053Z,0.80
2023-11-25T18:59:13.503Z,1.67
2023-11-25T19:01:42.428Z,1.63
2023-11-25T19:04:21.501Z,1.43
2023-11-25T19:06:52.101Z,1.10
2023-11-25T19:09:22.213Z,1.30
2023-11-25T19:11:53.273Z,1.30
2023-11-25T19:14:25.918Z,0.60
2023-11-25T19:16:53.911Z,1.33
2023-11-25T19:19:21.692Z,0.70
2023-11-25T19:21:49.640Z,1.43
2023-11-25T19:24:17.632Z,1.30
2023-11-25T19:26:46.285Z,1.23
2023-11-25T19:29:15.638Z,1.50
2023-11-25T19:31:43.474Z,1.40
2023-11-25T19:34:11.692Z,1.77
2023-11-25T19:36:39.610Z,1.73
2023-11-25T19:39:07.997Z,0.90
2023-11-25T19:41:40.830Z,1.73
2023-11-25T19:44:08.487Z,2.00
2023-11-25T19:46:36.934Z,2.17
2023-11-25T19:49:05.828Z,2.50
2023-11-25T19:51:33.640Z,2.13
2023-11-25T19:54:06.891Z,2.20
2023-11-25T19:56:43.010Z,1.93
2023-11-25T19:59:13.461Z,2.40
2023-11-25T20:01:43.949Z,2.23
2023-11-25T20:04:16.647Z,1.97
2023-11-25T20:06:45.363Z,2.03
2023-11-25T20:09:13.770Z,2.47
2023-11-25T20:11:44.836Z,2.37
2023-11-25T20:14:16.903Z,1.67
2023-11-25T20:16:45.114Z,2.33
2023-11-25T20:19:12.997Z,2.33
2023-11-25T20:21:40.571Z,2.60
2023-11-25T20:24:14.063Z,3.03
2023-11-25T20:26:46.026Z,2.13
2023-11-25T20:29:16.028Z,2.73
2023-11-25T20:31:48.671Z,3.10
2023-11-25T20:34:16.552Z,3.00
2023-11-25T20:36:44.500Z,2.43
2023-11-25T20:39:13.713Z,2.43
2023-11-25T20:41:42.530Z,2.93
2023-11-25T20:44:11.520Z,2.43
2023-11-25T20:46:39.685Z,3.17
2023-11-25T20:49:08.637Z,3.37
2023-11-25T20:51:39.126Z,2.67
2023-11-25T20:54:07.020Z,3.63
2023-11-25T20:56:34.609Z,3.33
2023-11-25T20:59:02.387Z,3.23
2023-11-25T21:01:31.655Z,3.43
2023-11-25T21:04:00.446Z,3.63
2023-11-25T21:06:30.084Z,4.43
2023-11-25T21:08:58.233Z,3.67
2023-11-25T21:11:25.764Z,4.37
2023-11-25T21:13:54.583Z,3.60
2023-11-25T21:16:23.074Z,4.07
2023-11-25T21:18:50.964Z,3.53
2023-11-25T21:21:18.950Z,3.47
2023-11-25T21:23:47.459Z,4.57
2023-11-25T21:26:15.818Z,3.33
2023-11-25T21:28:44.122Z,3.63
2023-11-25T21:31:13.143Z,3.37
2023-11-25T21:33:40.691Z,3.80
2023-11-25T21:36:08.813Z,3.07
2023-11-25T21:38:36.533Z,3.03
2023-11-25T21:41:04.630Z,3.37
2023-11-25T21:43:32.542Z,3.20
2023-11-25T21:46:00.138Z,4.03
2023-11-25T21:48:27.846Z,5.17
2023-11-25T21:50:55.770Z,3.70
2023-11-25T21:53:23.275Z,4.27
2023-11-25T21:55:51.375Z,3.97
2023-11-25T21:58:19.007Z,4.00
2023-11-25T22:00:48.883Z,3.33
2023-11-25T22:03:21.998Z,3.73
2023-11-25T22:05:49.907Z,4.07
2023-11-25T22:08:17.795Z,3.63
2023-11-25T22:10:48.028Z,3.87
2023-11-25T22:13:15.550Z,3.50
2023-11-25T22:15:43.820Z,3.00
2023-11-25T22:18:12.756Z,3.73
2023-11-25T22:20:41.315Z,3.30
2023-11-25T22:26:06.659Z,4.23
2023-11-25T22:28:35.468Z,4.87
2023-11-25T22:31:03.997Z,4.80
2023-11-25T22:33:32.156Z,4.57
2023-11-25T22:36:00.494Z,3.70
2023-11-25T22:38:31.949Z,3.73
2023-11-25T22:41:06.479Z,3.30
2023-11-25T22:43:37.831Z,4.30
2023-11-25T22:46:09.127Z,3.50
2023-11-25T22:48:42.037Z,4.47
2023-11-25T22:51:09.921Z,3.90
2023-11-25T22:53:37.792Z,3.90
2023-11-25T22:56:06.262Z,3.33
2023-11-25T22:58:34.078Z,4.53
2023-11-25T23:01:05.478Z,4.87
2023-11-25T23:03:33.738Z,4.50
2023-11-25T23:06:01.624Z,4.40
2023-11-25T23:08:29.264Z,4.53
2023-11-25T23:10:57.052Z,5.57
2023-11-25T23:13:24.846Z,4.93
2023-11-25T23:15:54.888Z,4.33
2023-11-25T23:18:22.857Z,3.90
2023-11-25T23:20:53.334Z,4.60
2023-11-25T23:23:21.154Z,4.30
2023-11-25T23:25:49.920Z,3.93
2023-11-25T23:28:17.974Z,4.87
2023-11-25T23:30:46.124Z,4.97
2023-11-25T23:33:14.150Z,4.07
2023-11-25T23:35:48.066Z,4.03
2023-11-25T23:38:15.893Z,5.07
2023-11-25T23:40:45.305Z,4.27
2023-11-25T23:43:14.499Z,4.37
2023-11-25T23:45:45.456Z,4.10
2023-11-25T23:48:13.307Z,3.63
2023-11-25T23:50:42.034Z,4.43
2023-11-25T23:53:16.264Z,4.40
2023-11-25T23:55:45.553Z,4.20
2023-11-25T23:58:20.184Z,3.87
